Time;durP1;ratioP1;P1;durP2;ratioP2;P2;SDS_P1;SDS_P2;PMS_P1;PMS_P2;Temp;Humidity;BMP_temperature;BMP_pressure;BME280_temperature;BME280_humidity;BME280_pressure;Samples;Min_cycle;Max_cycle;Signal;HPM_P1;HPM_P2
2022/03/12 00:00:26;;;;;;;15.95;10.82;;;;;;;11.04;36.41;101204.31;5069498;28;20036;-83
2022/03/12 00:02:51;;;;;;;16.98;11.45;;;;;;;10.99;37.13;101198.31;5046698;28;20016;-82
2022/03/12 00:05:18;;;;;;;15.90;10.30;;;;;;;11.04;36.21;101193.72;5063726;28;20821;-83
2022/03/12 00:07:43;;;;;;;20.42;12.52;;;;;;;11.02;36.30;101205.28;5053157;28;20027;-82
2022/03/12 00:10:13;;;;;;;16.88;9.70;;;;;;;11.01;36.89;101204.44;5044580;28;20028;-83
2022/03/12 00:12:40;;;;;;;20.45;11.02;;;;;;;11.05;36.41;101207.81;5068189;28;20483;-82
2022/03/12 00:15:09;;;;;;;21.30;10.57;;;;;;;11.07;36.94;101206.84;5049294;28;20028;-82
2022/03/12 00:17:35;;;;;;;16.58;10.18;;;;;;;11.05;37.14;101199.88;5065504;28;20026;-82
2022/03/12 00:20:01;;;;;;;19.88;11.90;;;;;;;11.04;36.65;101206.09;5068276;28;20059;-83
2022/03/12 00:22:28;;;;;;;18.88;10.43;;;;;;;11.03;37.28;101214.94;5066127;28;20428;-82
2022/03/12 00:24:55;;;;;;;18.67;10.65;;;;;;;10.92;37.22;101202.13;5047087;28;20503;-82
2022/03/12 00:27:20;;;;;;;19.38;10.55;;;;;;;10.96;37.21;101209.03;5043114;28;20103;-82
2022/03/12 00:29:48;;;;;;;20.30;11.13;;;;;;;10.98;36.52;101220.41;5074496;28;20544;-82
2022/03/12 00:32:14;;;;;;;15.38;10.45;;;;;;;10.95;37.00;101201.97;5047420;28;20488;-83
2022/03/12 00:34:39;;;;;;;17.45;10.23;;;;;;;10.94;37.51;101217.00;5062636;28;20035;-82
2022/03/12 00:37:05;;;;;;;16.77;9.85;;;;;;;10.93;37.39;101230.28;5063859;28;20047;-82
2022/03/12 00:39:30;;;;;;;16.35;10.13;;;;;;;10.90;37.01;101225.97;5061349;28;20032;-82
2022/03/12 00:41:56;;;;;;;19.60;11.70;;;;;;;10.86;37.75;101231.41;5047360;28;20020;-82
2022/03/12 00:44:21;;;;;;;17.23;10.85;;;;;;;10.86;38.27;101226.97;5062045;28;20488;-82
2022/03/12 00:46:47;;;;;;;19.92;10.65;;;;;;;10.94;37.87;101229.38;5070467;28;20028;-82
2022/03/12 00:49:12;;;;;;;18.20;11.32;;;;;;;10.86;38.74;101234.06;5044482;28;20123;-82
2022/03/12 00:51:39;;;;;;;18.38;10.68;;;;;;;10.86;38.02;101231.41;5072613;28;20445;-82
2022/03/12 00:54:05;;;;;;;16.75;11.02;;;;;;;10.82;38.78;101227.13;5064820;28;20167;-82
2022/03/12 00:56:31;;;;;;;20.08;11.10;;;;;;;10.80;38.97;101229.00;5051873;28;20522;-83
2022/03/12 00:58:57;;;;;;;19.60;10.90;;;;;;;10.84;38.52;101220.91;5067700;28;20046;-82
2022/03/12 01:01:23;;;;;;;17.70;10.00;;;;;;;10.81;39.44;101228.06;5049437;28;20032;-82
2022/03/12 01:03:49;;;;;;;17.02;11.05;;;;;;;10.79;39.43;101233.41;5047385;28;20043;-83
2022/03/12 01:06:15;;;;;;;18.52;11.23;;;;;;;10.78;39.59;101225.53;5052641;28;20476;-82
2022/03/12 01:08:40;;;;;;;20.45;11.30;;;;;;;10.78;39.96;101229.06;5051694;28;20089;-83
2022/03/12 01:11:08;;;;;;;16.80;9.50;;;;;;;10.73;40.03;101234.50;5050329;28;20009;-83
2022/03/12 01:13:34;;;;;;;18.42;10.13;;;;;;;10.79;40.43;101237.84;5070468;28;20028;-82
2022/03/12 01:15:59;;;;;;;21.13;11.25;;;;;;;10.71;41.00;101241.59;5067412;28;20036;-82
2022/03/12 01:18:26;;;;;;;20.08;11.68;;;;;;;10.73;40.98;101238.94;5048281;28;20563;-82
2022/03/12 01:20:53;;;;;;;18.77;10.73;;;;;;;10.75;40.78;101239.72;5049061;28;20061;-83
2022/03/12 01:23:23;;;;;;;16.90;9.95;;;;;;;10.77;40.81;101245.84;5057050;28;20384;-82
2022/03/12 01:25:49;;;;;;;20.60;10.32;;;;;;;10.80;41.03;101234.28;5065302;28;20035;-82
2022/03/12 01:28:16;;;;;;;16.88;9.40;;;;;;;10.78;40.85;101241.41;5050227;28;20040;-82
2022/03/12 01:30:42;;;;;;;19.13;11.38;;;;;;;10.76;42.41;101237.94;5070466;28;20139;-82
2022/03/12 01:33:09;;;;;;;19.48;11.13;;;;;;;10.69;41.69;101248.75;5086455;28;20118;-82
2022/03/12 01:35:35;;;;;;;17.77;11.27;;;;;;;10.68;42.62;101257.59;5069583;28;20028;-82
2022/03/12 01:38:02;;;;;;;19.08;11.15;;;;;;;10.69;43.87;101256.66;5045344;28;20117;-83
2022/03/12 01:40:28;;;;;;;16.70;10.88;;;;;;;10.60;43.98;101251.69;5061111;28;20484;-82
2022/03/12 01:42:53;;;;;;;19.55;11.77;;;;;;;10.52;45.04;101260.78;5053899;28;20523;-82
2022/03/12 01:45:26;;;;;;;18.35;11.43;;;;;;;10.53;44.41;101250.16;5067558;28;20077;-83
2022/03/12 01:47:56;;;;;;;17.48;11.30;;;;;;;10.45;45.69;101255.72;5048407;28;20064;-83
2022/03/12 01:50:23;;;;;;;19.55;10.73;;;;;;;10.53;44.71;101258.09;5052192;28;20028;-82
2022/03/12 01:52:49;;;;;;;19.55;11.63;;;;;;;10.47;45.42;101267.09;5050182;28;20067;-82
2022/03/12 01:55:15;;;;;;;21.33;11.85;;;;;;;10.44;45.49;101266.31;5053699;28;20064;-82
2022/03/12 01:57:40;;;;;;;21.20;10.45;;;;;;;10.44;45.55;101259.28;5050162;28;20067;-83
2022/03/12 02:00:06;;;;;;;20.42;11.18;;;;;;;10.46;45.41;101272.44;5070905;28;20156;-83
2022/03/12 02:02:31;;;;;;;20.13;11.95;;;;;;;10.40;46.36;101265.59;5071750;28;20082;-84
2022/03/12 02:04:57;;;;;;;19.73;11.50;;;;;;;10.37;47.01;101259.53;5049264;28;20047;-83
2022/03/12 02:07:22;;;;;;;22.20;11.30;;;;;;;10.30;47.16;101263.25;5055251;28;20111;-83
2022/03/12 02:09:50;;;;;;;21.70;11.23;;;;;;;10.29;47.71;101267.69;5066256;28;20051;-83
2022/03/12 02:12:15;;;;;;;18.65;11.07;;;;;;;10.28;46.64;101262.47;5046801;28;20020;-83
2022/03/12 02:14:41;;;;;;;18.67;11.15;;;;;;;10.26;46.43;101264.28;5071373;28;20028;-83
2022/03/12 02:17:11;;;;;;;20.60;11.63;;;;;;;10.24;46.37;101261.69;5050223;28;20078;-83
2022/03/12 02:19:39;;;;;;;22.83;11.82;;;;;;;10.24;46.12;101261.69;5053245;28;20016;-83
2022/03/12 02:22:13;;;;;;;17.33;10.20;;;;;;;10.32;46.49;101258.81;5052540;28;20036;-83
2022/03/12 02:24:39;;;;;;;22.02;11.65;;;;;;;10.32;47.45;101262.31;5065532;28;20028;-82
2022/03/12 02:27:08;;;;;;;20.00;10.27;;;;;;;10.26;47.60;101259.88;5066109;28;20424;-83
2022/03/12 02:29:34;;;;;;;19.23;11.13;;;;;;;10.17;47.75;101260.13;5046999;28;20040;-82
2022/03/12 02:32:04;;;;;;;18.08;10.88;;;;;;;10.16;47.19;101263.66;5057676;28;20063;-83
2022/03/12 02:34:38;;;;;;;19.42;11.60;;;;;;;10.12;46.96;101262.94;5065234;28;20040;-82
2022/03/12 02:37:05;;;;;;;20.33;12.30;;;;;;;10.15;47.42;101261.94;5065519;28;20380;-82
2022/03/12 02:39:34;;;;;;;20.42;11.25;;;;;;;10.13;46.89;101263.78;5065668;28;20042;-83
2022/03/12 02:42:00;;;;;;;18.10;9.55;;;;;;;10.20;46.15;101262.66;5084307;28;20036;-83
2022/03/12 02:44:28;;;;;;;18.65;9.45;;;;;;;10.25;45.90;101268.69;5065631;28;20035;-83
2022/03/12 02:47:16;;;;;;;18.27;11.90;;;;;;;10.27;45.88;101272.16;5084045;28;20074;-82
2022/03/12 02:49:48;;;;;;;18.85;11.30;;;;;;;10.25;46.37;101278.41;5065613;28;20387;-83
2022/03/12 02:52:14;;;;;;;20.42;10.80;;;;;;;10.26;46.50;101280.13;5066971;28;20538;-83
2022/03/12 02:54:41;;;;;;;19.98;11.23;;;;;;;10.19;46.34;101271.50;5082013;28;20069;-82
2022/03/12 02:57:06;;;;;;;18.08;10.50;;;;;;;10.22;46.89;101274.94;5084198;28;20031;-82
2022/03/12 02:59:33;;;;;;;18.67;11.63;;;;;;;10.17;47.21;101271.56;5066134;28;20073;-82
2022/03/12 03:02:02;;;;;;;23.40;12.65;;;;;;;10.12;46.63;101277.91;5083591;28;20024;-82
2022/03/12 03:04:31;;;;;;;17.77;11.18;;;;;;;10.13;47.28;101293.72;5082489;28;20487;-82
2022/03/12 03:06:58;;;;;;;21.50;11.48;;;;;;;10.16;46.51;101295.38;5065254;28;20077;-82
2022/03/12 03:09:24;;;;;;;17.92;10.65;;;;;;;10.16;46.30;101287.44;5065518;28;20016;-83
2022/03/12 03:11:51;;;;;;;22.02;11.18;;;;;;;10.13;47.09;101293.72;5083514;28;20036;-82
2022/03/12 03:14:19;;;;;;;19.63;11.52;;;;;;;10.05;47.19;101285.16;5064186;28;21525;-82
2022/03/12 03:16:50;;;;;;;16.67;10.68;;;;;;;10.01;47.24;101280.88;5082235;28;20061;-82
2022/03/12 03:19:16;;;;;;;22.73;12.18;;;;;;;9.94;47.33;101279.34;5081514;28;20429;-82
2022/03/12 03:21:41;;;;;;;18.65;10.23;;;;;;;9.87;47.49;101283.94;5066050;28;20008;-83
2022/03/12 03:24:07;;;;;;;19.77;12.60;;;;;;;9.76;48.34;101291.31;5082936;28;20540;-82
2022/03/12 03:26:38;;;;;;;18.60;11.27;;;;;;;9.73;48.38;101298.47;5081550;28;20039;-83
2022/03/12 03:29:04;;;;;;;21.50;12.73;;;;;;;9.56;49.53;101291.00;5083340;28;20027;-82
2022/03/12 03:31:29;;;;;;;19.98;11.55;;;;;;;9.36;50.14;101294.22;5075469;28;20072;-82
2022/03/12 03:33:55;;;;;;;20.75;11.65;;;;;;;9.33;49.99;101297.84;5053092;28;20034;-83
2022/03/12 03:36:20;;;;;;;18.30;11.63;;;;;;;9.08;50.94;101294.97;5049423;28;20028;-83
2022/03/12 03:38:45;;;;;;;21.40;11.60;;;;;;;8.96;51.67;101303.22;5047249;28;20024;-82
2022/03/12 03:41:11;;;;;;;25.17;12.65;;;;;;;8.77;51.99;101307.25;5070059;28;20036;-82
2022/03/12 03:43:36;;;;;;;19.67;11.82;;;;;;;8.60;53.28;101303.25;5075505;28;20403;-82
2022/03/12 03:46:02;;;;;;;21.05;11.48;;;;;;;8.68;53.12;101313.59;5051184;28;20067;-82
2022/03/12 03:48:27;;;;;;;17.95;10.93;;;;;;;8.73;53.07;101310.84;5065358;28;20033;-82
2022/03/12 03:50:54;;;;;;;18.67;11.00;;;;;;;8.68;53.85;101309.19;5069358;28;20437;-82
2022/03/12 03:53:22;;;;;;;16.40;10.65;;;;;;;8.81;53.75;101315.03;5067980;28;20101;-83
2022/03/12 03:55:48;;;;;;;18.00;10.63;;;;;;;8.89;53.56;101323.59;5063842;28;20024;-82
2022/03/12 03:58:14;;;;;;;20.00;12.20;;;;;;;8.92;53.78;101323.53;5067709;28;20024;-82
2022/03/12 04:00:51;;;;;;;18.88;10.68;;;;;;;8.93;54.01;101319.13;5044076;28;20035;-82
2022/03/12 04:03:19;;;;;;;19.25;10.18;;;;;;;8.94;53.54;101321.69;5055649;28;20360;-82
2022/03/12 04:05:45;;;;;;;18.95;11.23;;;;;;;8.96;53.03;101332.22;5046278;28;20524;-82
2022/03/12 04:08:10;;;;;;;19.92;11.10;;;;;;;8.97;53.20;101327.81;5063217;28;20119;-82
2022/03/12 04:10:36;;;;;;;17.10;10.20;;;;;;;8.96;52.82;101326.09;5048240;28;20669;-82
2022/03/12 04:13:10;;;;;;;21.33;10.73;;;;;;;8.93;52.07;101330.53;5056457;28;20086;-82
2022/03/12 04:15:37;;;;;;;19.92;10.50;;;;;;;8.86;52.13;101330.72;5063546;28;20379;-82
2022/03/12 04:18:04;;;;;;;20.45;10.68;;;;;;;8.81;52.35;101337.88;5048754;28;20021;-82
2022/03/12 04:20:30;;;;;;;19.00;11.13;;;;;;;8.75;52.07;101336.25;5066915;28;20115;-82
2022/03/12 04:22:55;;;;;;;17.92;10.63;;;;;;;8.72;52.50;101339.00;5067415;28;20161;-82
2022/03/12 04:25:21;;;;;;;22.17;11.57;;;;;;;8.73;53.22;101337.22;5063001;28;20549;-82
2022/03/12 04:27:47;;;;;;;25.17;11.40;;;;;;;8.68;53.96;101338.19;5067017;28;20490;-82
2022/03/12 04:30:14;;;;;;;19.20;10.73;;;;;;;8.71;54.75;101347.78;5045574;28;20059;-82
2022/03/12 04:32:42;;;;;;;28.85;10.43;;;;;;;8.72;54.64;101343.38;5079175;28;20036;-82
2022/03/12 04:35:08;;;;;;;18.65;10.43;;;;;;;8.66;54.75;101339.13;5082052;28;20035;-82
2022/03/12 04:37:35;;;;;;;20.42;10.32;;;;;;;8.61;55.33;101351.53;5064399;28;20384;-82
2022/03/12 04:40:08;;;;;;;18.25;10.00;;;;;;;8.56;55.77;101345.53;5082464;28;20364;-83
2022/03/12 04:42:38;;;;;;;20.27;10.43;;;;;;;8.51;55.94;101348.25;5065317;28;20206;-82
2022/03/12 04:45:08;;;;;;;17.13;10.90;;;;;;;8.50;56.30;101343.91;5064707;28;20197;-82
2022/03/12 04:47:33;;;;;;;19.08;11.15;;;;;;;8.48;56.39;101348.31;5067901;28;20027;-82
2022/03/12 04:49:59;;;;;;;16.60;10.32;;;;;;;8.45;56.24;101347.56;5066803;28;20395;-82
2022/03/12 04:52:30;;;;;;;18.38;11.30;;;;;;;8.39;56.03;101345.91;5085597;28;20052;-82
2022/03/12 04:54:56;;;;;;;18.08;10.95;;;;;;;8.38;55.85;101352.94;5084997;28;20050;-83
2022/03/12 04:57:23;;;;;;;18.83;11.48;;;;;;;8.33;56.24;101352.16;5101362;28;20024;-82
2022/03/12 04:59:48;;;;;;;21.92;10.93;;;;;;;8.30;55.87;101346.97;5064071;28;20484;-82
2022/03/12 05:02:13;;;;;;;18.33;10.57;;;;;;;8.24;56.63;101348.84;5063863;28;20070;-82
2022/03/12 05:04:39;;;;;;;19.35;10.57;;;;;;;8.25;56.68;101369.03;5080529;28;20028;-82
2022/03/12 05:07:09;;;;;;;15.43;9.40;;;;;;;8.32;56.16;101362.72;5081616;28;20024;-83
2022/03/12 05:09:34;;;;;;;18.55;10.52;;;;;;;8.26;57.29;101357.59;5081347;28;20118;-82
2022/03/12 05:12:05;;;;;;;19.95;11.02;;;;;;;8.30;57.40;101362.78;5063668;28;20132;-82
2022/03/12 05:14:35;;;;;;;18.02;10.65;;;;;;;8.33;57.89;101367.09;5082734;28;20046;-82
2022/03/12 05:17:05;;;;;;;15.48;8.63;;;;;;;8.31;58.32;101359.22;5082284;28;20028;-83
2022/03/12 05:19:31;;;;;;;17.83;10.32;;;;;;;8.29;58.96;101366.28;5080823;28;20634;-82
2022/03/12 05:21:56;;;;;;;18.17;10.60;;;;;;;8.28;59.18;101371.59;5064276;28;20043;-82
2022/03/12 05:24:21;;;;;;;17.58;10.70;;;;;;;8.21;60.07;101357.72;5082538;28;20128;-83
2022/03/12 05:26:47;;;;;;;19.02;10.93;;;;;;;8.21;60.22;101364.72;5081971;28;20103;-82
2022/03/12 05:29:12;;;;;;;16.98;10.68;;;;;;;8.18;60.93;101377.06;5080468;28;20438;-82
2022/03/12 05:31:38;;;;;;;21.58;11.02;;;;;;;8.17;61.30;101379.75;5082610;28;20499;-82
2022/03/12 05:34:03;;;;;;;18.10;10.63;;;;;;;8.15;61.60;101382.38;5064403;28;20067;-82
2022/03/12 05:36:28;;;;;;;18.95;11.02;;;;;;;8.19;61.89;101389.31;5063754;28;20077;-83
2022/03/12 05:38:54;;;;;;;20.23;10.32;;;;;;;8.19;62.13;101385.84;5080809;28;20123;-82
2022/03/12 05:41:19;;;;;;;18.27;9.43;;;;;;;8.14;62.20;101385.94;5082120;28;20039;-83
2022/03/12 05:43:48;;;;;;;19.60;10.07;;;;;;;8.14;63.00;101385.06;5085650;28;20467;-82
2022/03/12 05:46:14;;;;;;;16.70;10.77;;;;;;;8.12;63.56;101393.00;5068198;28;20032;-82
2022/03/12 05:48:41;;;;;;;17.88;10.75;;;;;;;8.06;64.09;101403.66;5085023;28;20135;-82
2022/03/12 05:51:09;;;;;;;18.25;10.65;;;;;;;8.03;64.48;101409.00;5076016;28;20028;-82
2022/03/12 05:53:36;;;;;;;16.15;10.07;;;;;;;7.97;64.46;101395.06;5055569;28;20035;-82
2022/03/12 05:56:03;;;;;;;17.02;10.45;;;;;;;8.00;64.34;101395.03;5057502;28;20436;-83
2022/03/12 05:58:35;;;;;;;17.73;11.93;;;;;;;7.98;64.40;101407.38;5080630;28;20391;-82
2022/03/12 06:01:00;;;;;;;17.25;10.45;;;;;;;8.02;64.26;101401.13;5085318;28;20022;-82
2022/03/12 06:03:26;;;;;;;16.85;10.40;;;;;;;8.00;64.56;101402.91;5086560;28;20036;-82
2022/03/12 06:05:55;;;;;;;15.90;9.80;;;;;;;8.05;64.69;101416.84;5084385;28;20537;-82
2022/03/12 06:08:22;;;;;;;20.38;10.57;;;;;;;7.99;64.56;101407.31;5066895;28;20517;-82
2022/03/12 06:10:51;;;;;;;15.80;10.15;;;;;;;7.97;64.77;101409.09;5067648;28;20027;-82
2022/03/12 06:13:16;;;;;;;18.42;10.02;;;;;;;7.98;64.95;101410.00;5066862;28;20058;-82
2022/03/12 06:15:42;;;;;;;16.25;10.07;;;;;;;7.96;65.26;101409.16;5066613;28;20503;-83
2022/03/12 06:18:11;;;;;;;16.48;9.20;;;;;;;7.96;65.64;101412.66;5084765;28;20024;-83
2022/03/12 06:20:38;;;;;;;18.13;10.40;;;;;;;7.92;65.63;101401.31;5067965;28;20510;-83
2022/03/12 06:23:04;;;;;;;17.42;10.18;;;;;;;7.96;65.57;101417.91;5086324;28;20028;-83
2022/03/12 06:25:30;;;;;;;17.85;10.43;;;;;;;7.98;65.88;101417.91;5085604;28;20028;-83
2022/03/12 06:27:56;;;;;;;17.83;10.93;;;;;;;7.95;65.96;101421.44;5083881;28;20035;-82
2022/03/12 06:30:24;;;;;;;14.95;9.55;;;;;;;7.99;66.29;101430.16;5085781;28;20078;-83
2022/03/12 06:32:50;;;;;;;17.88;10.35;;;;;;;7.96;66.74;101433.72;5066040;28;20070;-82
2022/03/12 06:35:16;;;;;;;18.25;10.25;;;;;;;7.99;67.12;101433.66;5084722;28;20552;-82
2022/03/12 06:37:43;;;;;;;19.13;11.00;;;;;;;8.00;66.92;101437.16;5065492;28;20036;-82
2022/03/12 06:40:11;;;;;;;16.83;10.60;;;;;;;8.06;66.95;101427.34;5085038;28;20130;-82
2022/03/12 06:42:39;;;;;;;18.25;9.75;;;;;;;8.11;67.06;101432.53;5085156;28;20020;-82
2022/03/12 06:45:08;;;;;;;22.15;11.43;;;;;;;8.18;66.46;101431.50;5084345;28;20344;-82
2022/03/12 06:47:34;;;;;;;17.23;10.13;;;;;;;8.21;67.07;101436.72;5084150;28;20070;-82
2022/03/12 06:50:00;;;;;;;16.88;9.50;;;;;;;8.19;67.63;101443.78;5065492;28;20481;-82
2022/03/12 06:52:27;;;;;;;15.68;9.50;;;;;;;8.23;67.81;101441.97;5065574;28;20130;-82
2022/03/12 06:54:53;;;;;;;18.98;10.20;;;;;;;8.26;67.96;101444.53;5084814;28;20169;-82
2022/03/12 06:57:19;;;;;;;17.60;9.80;;;;;;;8.22;68.62;101448.13;5084943;28;20754;-82
2022/03/12 06:59:45;;;;;;;15.57;9.27;;;;;;;8.33;68.08;101456.66;5064484;28;20024;-82
2022/03/12 07:02:10;;;;;;;15.32;9.98;;;;;;;8.37;68.74;101453.09;5085318;28;20051;-82
2022/03/12 07:04:35;;;;;;;15.00;9.88;;;;;;;8.39;68.67;101446.03;5082790;28;20059;-82
2022/03/12 07:07:01;;;;;;;13.93;8.50;;;;;;;8.53;68.40;101458.91;5085183;28;20031;-82
2022/03/12 07:09:27;;;;;;;15.68;9.40;;;;;;;8.61;68.36;101460.47;5084404;28;20168;-82
2022/03/12 07:11:57;;;;;;;15.10;8.45;;;;;;;8.67;68.37;101464.72;5067515;28;20020;-82
2022/03/12 07:14:29;;;;;;;17.02;10.20;;;;;;;8.74;68.27;101460.22;5085909;28;20499;-82
2022/03/12 07:16:55;;;;;;;12.60;7.13;;;;;;;8.84;68.15;101474.91;5067166;28;20023;-82
2022/03/12 07:19:21;;;;;;;14.13;9.20;;;;;;;8.84;68.12;101459.09;5083147;28;20042;-82
2022/03/12 07:21:49;;;;;;;12.63;8.38;;;;;;;8.96;67.84;101471.13;5066662;28;20487;-82
2022/03/12 07:24:15;;;;;;;15.10;9.05;;;;;;;9.00;67.64;101471.03;5066901;28;20110;-81
2022/03/12 07:26:41;;;;;;;16.75;10.02;;;;;;;9.04;67.85;101477.94;5065457;28;20044;-82
2022/03/12 07:29:06;;;;;;;15.57;10.20;;;;;;;9.06;67.18;101478.78;5065392;28;20149;-82
2022/03/12 07:31:32;;;;;;;12.50;8.13;;;;;;;9.15;67.25;101473.28;5066274;28;20051;-82
2022/03/12 07:33:57;;;;;;;13.23;8.77;;;;;;;9.18;67.04;101483.75;5083562;28;20024;-82
2022/03/12 07:36:22;;;;;;;15.43;9.63;;;;;;;9.26;67.59;101485.34;5065600;28;20028;-82
2022/03/12 07:38:48;;;;;;;16.45;9.32;;;;;;;9.38;66.61;101480.66;5066160;28;20536;-82
2022/03/12 07:41:13;;;;;;;14.30;8.75;;;;;;;9.48;66.65;101485.69;5065984;28;20027;-82
2022/03/12 07:43:39;;;;;;;12.20;8.68;;;;;;;9.53;66.11;101497.00;5066246;28;20032;-82
2022/03/12 07:46:05;;;;;;;18.00;9.73;;;;;;;9.57;67.01;101496.88;5084394;28;20028;-82
2022/03/12 07:48:30;;;;;;;16.17;10.20;;;;;;;9.65;67.01;101496.66;5064500;28;20562;-82
2022/03/12 07:50:56;;;;;;;12.70;8.98;;;;;;;9.70;67.10;101497.44;5065838;28;20114;-82
2022/03/12 07:53:22;;;;;;;14.32;9.43;;;;;;;9.85;66.98;101502.31;5083479;28;20035;-82
2022/03/12 07:55:48;;;;;;;13.50;8.02;;;;;;;9.96;66.04;101509.94;5084774;28;20120;-82
2022/03/12 07:58:15;;;;;;;10.48;6.78;;;;;;;10.08;66.47;101514.91;5066369;28;20093;-82
2022/03/12 08:00:40;;;;;;;13.50;8.85;;;;;;;10.17;66.48;101519.94;5082085;28;20063;-82
2022/03/12 08:03:05;;;;;;;12.20;7.93;;;;;;;10.29;65.76;101513.47;5084377;28;20047;-82
2022/03/12 08:05:31;;;;;;;10.25;7.22;;;;;;;10.42;65.35;101514.84;5084062;28;20059;-83
2022/03/12 08:07:57;;;;;;;11.98;7.28;;;;;;;10.50;65.09;101519.94;5083287;28;20035;-82
2022/03/12 08:10:23;;;;;;;12.60;7.60;;;;;;;10.65;64.91;101530.06;5081929;28;20059;-82
2022/03/12 08:12:50;;;;;;;14.77;7.40;;;;;;;10.76;64.09;101534.16;5066704;28;20390;-82
2022/03/12 08:15:16;;;;;;;8.80;6.78;;;;;;;10.83;64.66;101530.44;5084162;28;20028;-82
2022/03/12 08:17:46;;;;;;;13.98;7.80;;;;;;;10.82;64.09;101529.56;5065690;28;20417;-81
2022/03/12 08:20:12;;;;;;;11.02;7.55;;;;;;;10.94;63.82;101530.94;5065067;28;20061;-82
2022/03/12 08:22:38;;;;;;;13.05;7.72;;;;;;;11.06;64.25;101535.00;5083445;28;20028;-82
2022/03/12 08:25:06;;;;;;;12.80;7.13;;;;;;;11.23;63.67;101540.63;5065690;28;20062;-82
2022/03/12 08:27:32;;;;;;;10.73;8.13;;;;;;;11.34;63.22;101538.53;5083256;28;20416;-82
2022/03/12 08:29:58;;;;;;;14.05;7.43;;;;;;;11.47;63.03;101545.16;5066111;28;20128;-82
2022/03/12 08:32:24;;;;;;;10.43;6.70;;;;;;;11.72;61.99;101550.50;5057012;28;20127;-82
2022/03/12 08:34:49;;;;;;;10.18;6.32;;;;;;;11.94;61.50;101541.88;5063326;28;20391;-82
2022/03/12 08:37:14;;;;;;;10.05;6.13;;;;;;;12.15;60.41;101551.69;5061955;28;20335;-82
2022/03/12 08:39:40;;;;;;;12.57;7.13;;;;;;;12.21;60.53;101564.72;5056434;28;20034;-83
2022/03/12 08:42:06;;;;;;;9.23;6.22;;;;;;;12.27;59.74;101558.38;5060046;28;20066;-83
2022/03/12 08:44:31;;;;;;;8.73;5.97;;;;;;;12.31;60.46;101553.78;5055650;28;20048;-83
2022/03/12 08:46:57;;;;;;;9.57;6.65;;;;;;;12.53;60.13;101554.75;5049531;28;20476;-82
2022/03/12 08:49:22;;;;;;;9.48;6.43;;;;;;;12.79;58.94;101545.81;5060344;28;20461;-83
2022/03/12 08:51:48;;;;;;;9.20;6.82;;;;;;;13.07;57.86;101553.59;5094261;28;20048;-82
2022/03/12 08:54:13;;;;;;;9.35;6.32;;;;;;;13.25;57.77;101552.03;5054244;28;20020;-83
2022/03/12 08:56:39;;;;;;;9.98;5.80;;;;;;;13.35;57.24;101556.03;5058052;28;20032;-83
2022/03/12 08:59:04;;;;;;;9.50;6.53;;;;;;;13.17;57.07;101549.63;5063260;28;20028;-83
2022/03/12 09:01:31;;;;;;;8.50;6.13;;;;;;;13.31;57.51;101561.53;5053563;28;20044;-83
2022/03/12 09:03:57;;;;;;;10.18;5.57;;;;;;;13.32;57.36;101564.13;5049325;28;20527;-82
2022/03/12 09:06:26;;;;;;;8.57;6.18;;;;;;;13.24;57.22;101548.53;5062800;28;20377;-83
2022/03/12 09:08:52;;;;;;;16.35;6.35;;;;;;;13.44;57.07;101557.47;5060875;28;20032;-82
2022/03/12 09:11:17;;;;;;;7.38;5.15;;;;;;;13.33;57.09;101562.34;5057228;28;20388;-83
2022/03/12 09:13:43;;;;;;;8.90;5.50;;;;;;;13.31;56.98;101569.50;5064388;28;20024;-83
2022/03/12 09:16:09;;;;;;;9.23;6.15;;;;;;;13.38;56.63;101560.34;5066620;28;20484;-83
2022/03/12 09:18:34;;;;;;;10.70;5.43;;;;;;;13.34;57.18;101566.75;5062491;28;20035;-82
2022/03/12 09:20:59;;;;;;;9.98;5.90;;;;;;;13.51;56.96;101574.88;5064612;28;20081;-83
2022/03/12 09:23:25;;;;;;;8.90;5.55;;;;;;;13.82;56.26;101569.16;5070172;28;20491;-83
2022/03/12 09:25:51;;;;;;;8.85;5.15;;;;;;;13.65;56.14;101575.16;5069015;28;20419;-83
2022/03/12 09:28:18;;;;;;;9.20;5.25;;;;;;;13.69;55.10;101581.22;5067876;28;20387;-83
2022/03/12 09:30:47;;;;;;;6.82;4.03;;;;;;;13.58;54.38;101581.69;5061921;28;20017;-83
2022/03/12 09:33:12;;;;;;;12.73;5.72;;;;;;;13.24;54.89;101571.53;5067740;28;20064;-82
2022/03/12 09:35:37;;;;;;;26.33;16.33;;;;;;;13.39;54.32;101573.59;5066911;28;20120;-82
2022/03/12 09:38:03;;;;;;;28.23;17.85;;;;;;;13.50;53.96;101573.16;5049696;28;20028;-83
2022/03/12 09:40:30;;;;;;;14.25;7.45;;;;;;;14.05;53.21;101578.81;5065346;28;20024;-83
2022/03/12 09:42:55;;;;;;;9.90;4.32;;;;;;;14.44;50.68;101573.56;5063904;28;20040;-83
2022/03/12 09:45:22;;;;;;;5.22;3.60;;;;;;;14.41;50.41;101581.69;5047182;28;20048;-83
2022/03/12 09:47:49;;;;;;;6.32;3.78;;;;;;;14.09;51.57;101580.44;5047181;28;20135;-83
2022/03/12 09:50:14;;;;;;;10.00;4.15;;;;;;;14.07;51.80;101566.31;5066161;28;20446;-83
2022/03/12 09:52:40;;;;;;;8.60;4.15;;;;;;;14.33;50.47;101578.50;5065086;28;20075;-83
2022/03/12 09:55:07;;;;;;;9.05;4.68;;;;;;;14.89;49.53;101560.94;5046597;28;20021;-83
2022/03/12 09:57:34;;;;;;;7.15;3.95;;;;;;;15.53;48.19;101565.84;5047652;28;20404;-82
2022/03/12 10:00:01;;;;;;;8.07;3.67;;;;;;;15.45;47.24;101570.69;5045175;28;20029;-84
2022/03/12 10:02:26;;;;;;;10.90;3.03;;;;;;;15.24;47.11;101568.09;5045557;28;20100;-83
2022/03/12 10:04:53;;;;;;;5.03;2.85;;;;;;;14.97;47.70;101582.75;5064026;28;20267;-83
2022/03/12 10:07:18;;;;;;;9.20;3.67;;;;;;;14.83;47.49;101587.81;5064518;28;20700;-83
2022/03/12 10:09:44;;;;;;;6.68;2.72;;;;;;;14.37;48.48;101593.38;5062880;28;20020;-82
2022/03/12 10:12:09;;;;;;;8.00;3.00;;;;;;;14.57;48.20;101597.00;5064169;28;20027;-83
2022/03/12 10:14:35;;;;;;;8.05;3.10;;;;;;;14.75;48.16;101601.50;5064512;28;20032;-83
2022/03/12 10:17:02;;;;;;;9.05;3.97;;;;;;;14.49;48.16;101594.66;5046141;28;20032;-82
2022/03/12 10:19:29;;;;;;;6.25;3.35;;;;;;;14.81;47.98;101593.22;5046771;28;20753;-83
2022/03/12 10:21:55;;;;;;;5.93;2.17;;;;;;;15.42;46.34;101586.81;5047437;28;20162;-83
2022/03/12 10:24:20;;;;;;;8.93;2.90;;;;;;;15.46;46.13;101588.38;5047591;28;20115;-83
2022/03/12 10:26:46;;;;;;;5.85;2.83;;;;;;;15.34;46.16;101604.94;5063961;28;20024;-83
2022/03/12 10:29:12;;;;;;;7.63;3.45;;;;;;;15.14;47.07;101588.13;5046364;28;20556;-84
2022/03/12 10:31:41;;;;;;;8.80;3.47;;;;;;;15.09;47.07;101581.28;5055524;28;20036;-83
2022/03/12 10:34:24;;;;;;;12.95;3.15;;;;;;;14.87;47.97;101592.06;5083619;28;20032;-82
2022/03/12 10:36:53;;;;;;;;;;;;;;;14.76;46.99;101589.91;5067224;28;20574;-82
2022/03/12 10:39:33;;;;;;;7.00;3.20;;;;;;;14.49;47.38;101587.53;5065908;28;19932;-82
2022/03/12 10:42:01;;;;;;;6.75;2.95;;;;;;;14.76;48.32;101593.44;5085792;28;20070;-82
2022/03/12 10:44:33;;;;;;;6.72;2.72;;;;;;;15.19;46.78;101588.75;5066724;28;20028;-83
2022/03/12 10:46:58;;;;;;;6.30;2.88;;;;;;;15.65;45.58;101602.56;5066967;28;20282;-83
2022/03/12 10:49:23;;;;;;;8.07;3.25;;;;;;;15.70;45.04;101589.88;5066527;28;20515;-83
2022/03/12 10:51:49;;;;;;;5.95;2.63;;;;;;;15.67;45.18;101595.38;5084463;28;20107;-82
2022/03/12 10:54:15;;;;;;;9.48;2.67;;;;;;;16.71;42.33;101599.81;5098891;28;20038;-82
2022/03/12 10:56:46;;;;;;;5.72;3.50;;;;;;;16.66;42.18;101588.50;5085442;28;20073;-83
2022/03/12 10:59:14;;;;;;;16.98;5.03;;;;;;;17.27;42.21;101582.50;5085762;28;20133;-83
2022/03/12 11:01:59;;;;;;;3.60;2.30;;;;;;;18.66;38.16;101589.47;5081357;28;20098;-83
2022/03/12 11:04:29;;;;;;;7.43;2.63;;;;;;;18.95;37.85;101585.00;5068512;28;20605;-83
2022/03/12 11:06:57;;;;;;;6.50;2.50;;;;;;;19.98;36.56;101582.69;5070905;28;20442;-83
2022/03/12 11:09:36;;;;;;;4.78;2.28;;;;;;;19.31;35.75;101581.78;5066482;28;20050;-83
2022/03/12 11:12:04;;;;;;;4.90;2.35;;;;;;;19.51;37.76;101584.00;5070265;28;20428;-82
2022/03/12 11:14:30;;;;;;;7.50;2.60;;;;;;;18.91;37.68;101588.81;5086841;28;20115;-83